createdAt,value
2017-11-07T00:01:55.032Z,80.25
2017-11-07T00:04:22.618Z,82.82
2017-11-07T00:06:50.173Z,75.25
2017-11-07T00:09:17.767Z,76.75
2017-11-07T00:11:46.105Z,76.62
2017-11-07T00:14:13.701Z,69.47
2017-11-07T00:16:41.260Z,62.13
2017-11-07T00:19:09.846Z,65.18
2017-11-07T00:21:37.405Z,60.08
2017-11-07T00:24:04.987Z,60.47
2017-11-07T00:26:33.323Z,51.40
2017-11-07T00:29:00.926Z,62.28
2017-11-07T00:31:28.482Z,63.28
2017-11-07T00:33:56.021Z,57.75
2017-11-07T00:36:23.602Z,48.78
2017-11-07T00:38:51.172Z,62.35
2017-11-07T00:41:18.714Z,52.67
2017-11-07T00:43:46.297Z,58.83
2017-11-07T00:46:13.850Z,50.92
2017-11-07T00:48:41.438Z,58.25
2017-11-07T00:51:09.056Z,61.60
2017-11-07T00:53:36.634Z,63.33
2017-11-07T00:56:04.217Z,63.75
2017-11-07T00:58:31.945Z,49.90
2017-11-07T01:00:59.511Z,56.17
2017-11-07T01:03:27.104Z,46.05
2017-11-07T01:05:54.663Z,50.38
2017-11-07T01:08:22.228Z,51.08
2017-11-07T01:10:49.792Z,61.90
2017-11-07T01:13:17.380Z,65.05
2017-11-07T01:15:44.953Z,63.63
2017-11-07T01:18:12.563Z,62.22
2017-11-07T01:20:40.126Z,72.95
2017-11-07T01:23:07.719Z,67.05
2017-11-07T01:25:35.308Z,65.95
2017-11-07T01:28:02.867Z,57.42
2017-11-07T01:30:30.448Z,66.50
2017-11-07T01:32:57.990Z,74.22
2017-11-07T01:35:26.554Z,66.75
2017-11-07T01:37:54.120Z,64.78
2017-11-07T01:40:21.716Z,61.83
2017-11-07T01:42:49.309Z,62.70
2017-11-07T01:45:17.658Z,58.08
2017-11-07T01:47:45.268Z,57.42
2017-11-07T01:50:13.592Z,40.03
2017-11-07T01:52:41.173Z,36.85
2017-11-07T01:55:13.985Z,42.65
2017-11-07T01:57:41.601Z,41.50
2017-11-07T02:00:09.160Z,38.45
2017-11-07T02:02:36.744Z,52.20
2017-11-07T02:05:04.318Z,46.17
2017-11-07T02:07:31.887Z,45.92
2017-11-07T02:09:59.461Z,43.87
2017-11-07T02:12:27.011Z,43.13
2017-11-07T02:14:54.605Z,28.52
2017-11-07T02:17:22.965Z,35.20
2017-11-07T02:19:50.578Z,38.75
2017-11-07T02:22:18.919Z,37.95
2017-11-07T02:24:46.473Z,39.20
2017-11-07T02:27:14.069Z,34.10
2017-11-07T02:29:41.611Z,32.90
2017-11-07T02:32:09.205Z,32.85
2017-11-07T02:34:37.566Z,37.33
2017-11-07T02:37:05.149Z,42.83
2017-11-07T02:39:32.713Z,43.38
2017-11-07T02:42:00.328Z,36.92
2017-11-07T02:44:27.886Z,43.47
2017-11-07T02:46:55.428Z,41.13
2017-11-07T02:49:23.788Z,43.30
2017-11-07T02:51:51.373Z,39.67
2017-11-07T02:54:18.947Z,43.60
2017-11-07T02:56:46.517Z,44.97
2017-11-07T02:59:15.092Z,48.30
2017-11-07T03:01:42.643Z,46.65
2017-11-07T03:04:10.982Z,40.63
2017-11-07T03:06:38.559Z,34.58
2017-11-07T03:09:06.152Z,57.00
2017-11-07T03:11:34.495Z,48.20
2017-11-07T03:14:02.052Z,46.22
2017-11-07T03:16:29.594Z,44.83
2017-11-07T03:18:57.181Z,43.15
2017-11-07T03:21:24.719Z,42.65
2017-11-07T03:23:52.295Z,47.85
2017-11-07T03:26:19.891Z,50.67
2017-11-07T03:28:47.452Z,58.47
2017-11-07T03:31:16.062Z,50.78
2017-11-07T03:33:43.632Z,57.35
2017-11-07T03:36:11.193Z,62.15
2017-11-07T03:38:38.756Z,65.53
2017-11-07T03:41:06.362Z,67.68
2017-11-07T03:43:33.926Z,57.05
2017-11-07T03:46:01.491Z,69.87
2017-11-07T03:48:29.074Z,81.20
2017-11-07T03:50:56.617Z,69.47
2017-11-07T03:53:24.193Z,71.87
2017-11-07T03:55:51.730Z,64.60
2017-11-07T03:58:20.064Z,54.25
2017-11-07T04:00:47.669Z,50.60
2017-11-07T04:03:15.212Z,66.10
2017-11-07T04:05:42.814Z,49.85
2017-11-07T04:08:11.169Z,50.50
2017-11-07T04:10:38.774Z,54.17
2017-11-07T04:13:06.364Z,58.47
2017-11-07T04:15:33.996Z,45.63
2017-11-07T04:18:01.561Z,39.45
2017-11-07T04:20:30.163Z,32.92
2017-11-07T04:22:57.731Z,35.03
2017-11-07T04:25:25.309Z,36.33
2017-11-07T04:27:52.849Z,38.53
2017-11-07T04:30:20.462Z,35.42
2017-11-07T04:32:48.019Z,37.35
2017-11-07T04:35:15.567Z,43.38
2017-11-07T04:37:43.188Z,34.83
2017-11-07T04:40:10.765Z,33.65
2017-11-07T04:42:39.094Z,37.03
2017-11-07T04:45:06.683Z,29.17
2017-11-07T04:47:34.264Z,32.55
2017-11-07T04:50:02.595Z,27.13
2017-11-07T04:52:30.147Z,25.95
2017-11-07T04:54:57.728Z,27.08
2017-11-07T04:57:25.290Z,24.60
2017-11-07T04:59:52.868Z,26.15
2017-11-07T05:02:20.474Z,25.02
2017-11-07T05:04:48.075Z,23.77
2017-11-07T05:07:15.645Z,29.85
2017-11-07T05:09:43.251Z,23.00
2017-11-07T05:12:11.578Z,25.30
2017-11-07T05:14:39.276Z,29.48
2017-11-07T05:17:06.828Z,19.92
2017-11-07T05:19:34.392Z,27.50
2017-11-07T05:22:01.992Z,20.80
2017-11-07T05:24:29.601Z,22.83
2017-11-07T05:26:57.160Z,25.67
2017-11-07T05:29:24.741Z,22.60
2017-11-07T05:31:52.332Z,21.40
2017-11-07T05:34:19.911Z,19.90
2017-11-07T05:36:47.469Z,26.73
2017-11-07T05:39:15.054Z,25.00
2017-11-07T05:41:43.392Z,23.70
2017-11-07T05:44:10.969Z,25.48
2017-11-07T05:46:38.550Z,35.33
2017-11-07T05:49:06.141Z,29.52
2017-11-07T05:51:34.454Z,26.58
2017-11-07T05:54:02.049Z,28.85
2017-11-07T05:56:29.613Z,28.98
2017-11-07T05:58:58.164Z,34.65
2017-11-07T06:01:25.751Z,30.42
2017-11-07T06:03:53.307Z,33.63
2017-11-07T06:06:20.904Z,33.58
2017-11-07T06:08:48.448Z,29.48
2017-11-07T06:11:16.055Z,32.95
2017-11-07T06:13:44.409Z,39.20
2017-11-07T06:16:13.028Z,26.45
2017-11-07T06:18:40.598Z,27.10
2017-11-07T06:21:09.049Z,35.55
2017-11-07T06:23:36.632Z,33.97
2017-11-07T06:26:04.197Z,28.62
2017-11-07T06:28:31.784Z,30.83
2017-11-07T06:31:00.115Z,32.47
2017-11-07T06:33:27.764Z,31.10
2017-11-07T06:35:55.396Z,34.42
2017-11-07T06:38:23.742Z,34.30
2017-11-07T06:40:51.331Z,25.35
2017-11-07T06:43:18.945Z,30.42
2017-11-07T06:45:46.525Z,22.70
2017-11-07T06:48:14.078Z,28.00
2017-11-07T06:50:41.678Z,22.15
2017-11-07T06:53:09.248Z,27.05
2017-11-07T06:55:37.857Z,25.95
2017-11-07T06:58:06.193Z,28.45
2017-11-07T07:00:34.778Z,25.80
2017-11-07T07:03:02.349Z,21.83
2017-11-07T07:05:29.937Z,20.27
2017-11-07T07:07:58.302Z,17.52
2017-11-07T07:10:25.923Z,21.17
2017-11-07T07:12:54.816Z,29.87
2017-11-07T07:15:22.396Z,29.25
2017-11-07T07:17:49.970Z,30.15
2017-11-07T07:20:17.513Z,22.10
2017-11-07T07:22:45.076Z,21.52
2017-11-07T07:25:13.399Z,20.02
2017-11-07T07:27:40.970Z,14.23
2017-11-07T07:30:08.498Z,19.52
2017-11-07T07:32:36.076Z,19.33
2017-11-07T07:35:03.633Z,22.40
2017-11-07T07:37:31.191Z,16.67
2017-11-07T07:39:58.761Z,21.55
2017-11-07T07:42:26.315Z,20.98
2017-11-07T07:44:53.920Z,20.75
2017-11-07T07:47:21.503Z,18.92
2017-11-07T07:49:49.108Z,23.12
2017-11-07T07:52:16.703Z,20.67
2017-11-07T07:54:44.306Z,20.75
2017-11-07T07:57:12.667Z,22.80
2017-11-07T07:59:40.252Z,21.27
2017-11-07T08:02:07.825Z,21.77
2017-11-07T08:04:35.425Z,22.98
2017-11-07T08:07:03.033Z,20.95
2017-11-07T08:09:30.630Z,20.62
2017-11-07T08:11:58.995Z,23.27
2017-11-07T08:14:27.327Z,20.25
2017-11-07T08:16:54.909Z,21.60
2017-11-07T08:19:22.480Z,24.15
2017-11-07T08:21:50.052Z,23.85
2017-11-07T08:24:17.610Z,22.48
2017-11-07T08:26:45.204Z,19.95
2017-11-07T08:29:12.809Z,21.50
2017-11-07T08:31:40.360Z,22.27
2017-11-07T08:34:08.683Z,20.33
2017-11-07T08:36:36.280Z,21.08
2017-11-07T08:39:04.644Z,19.40
2017-11-07T08:41:32.222Z,24.12
2017-11-07T08:43:59.774Z,21.50
2017-11-07T08:46:27.522Z,20.17
2017-11-07T08:48:55.101Z,20.55
2017-11-07T08:51:22.660Z,18.05
2017-11-07T08:53:50.210Z,13.57
2017-11-07T08:56:17.819Z,15.85
2017-11-07T08:58:46.181Z,15.35
2017-11-07T09:01:14.792Z,16.87
2017-11-07T09:03:42.356Z,15.85
2017-11-07T09:06:09.945Z,14.20
2017-11-07T09:08:38.285Z,18.95
2017-11-07T09:11:07.423Z,15.40
2017-11-07T09:13:35.783Z,12.27
2017-11-07T09:16:03.373Z,9.25
2017-11-07T09:18:31.738Z,15.13
2017-11-07T09:21:00.088Z,11.63
2017-11-07T09:23:28.807Z,13.73
2017-11-07T09:25:56.374Z,15.23
2017-11-07T09:28:24.748Z,13.62
2017-11-07T09:30:52.309Z,14.48
2017-11-07T09:33:20.301Z,13.40
2017-11-07T09:35:47.851Z,14.80
2017-11-07T09:38:15.444Z,13.93
2017-11-07T09:40:43.846Z,17.95
2017-11-07T09:43:11.403Z,14.40
2017-11-07T09:45:39.766Z,17.23
2017-11-07T09:48:08.737Z,22.02
2017-11-07T09:50:36.325Z,20.67
2017-11-07T09:53:04.714Z,21.17
2017-11-07T09:55:33.092Z,21.87
2017-11-07T09:58:01.394Z,37.55
2017-11-07T10:00:29.735Z,20.25
2017-11-07T10:02:57.292Z,27.70
2017-11-07T10:05:24.844Z,18.98
2017-11-07T10:07:52.404Z,20.62
2017-11-07T10:10:19.965Z,19.30
2017-11-07T10:12:47.565Z,18.55
2017-11-07T10:15:15.139Z,20.25
2017-11-07T10:17:43.529Z,19.98
2017-11-07T10:20:11.108Z,18.15
2017-11-07T10:22:39.452Z,22.50
2017-11-07T10:25:07.028Z,21.45
2017-11-07T10:27:34.609Z,19.10
2017-11-07T10:30:02.183Z,18.60
2017-11-07T10:32:29.829Z,24.80
2017-11-07T10:34:58.213Z,21.20
2017-11-07T10:37:25.802Z,25.10
2017-11-07T10:39:55.190Z,18.83
2017-11-07T10:42:23.516Z,19.55
2017-11-07T10:44:51.481Z,25.88
2017-11-07T10:47:19.068Z,23.58
2017-11-07T10:49:46.681Z,19.80
2017-11-07T10:52:15.032Z,22.27
2017-11-07T10:54:42.605Z,28.17
2017-11-07T10:57:10.219Z,23.85
2017-11-07T10:59:37.839Z,20.75
2017-11-07T11:02:05.426Z,22.85
2017-11-07T11:04:33.768Z,23.40
2017-11-07T11:07:01.379Z,22.62
2017-11-07T11:09:29.729Z,15.93
2017-11-07T11:11:57.302Z,26.27
2017-11-07T11:14:24.888Z,26.75
2017-11-07T11:16:54.077Z,22.23
2017-11-07T11:19:21.876Z,25.42
2017-11-07T11:21:50.214Z,28.27
2017-11-07T11:24:17.840Z,22.58
2017-11-07T11:26:45.408Z,24.37
2017-11-07T11:29:13.018Z,29.33
2017-11-07T11:31:40.590Z,28.10
2017-11-07T11:34:08.171Z,26.27
2017-11-07T11:36:36.522Z,32.50
2017-11-07T11:39:04.160Z,28.10
2017-11-07T11:41:31.779Z,30.70
2017-11-07T11:43:59.432Z,26.23
2017-11-07T11:46:27.107Z,27.80
2017-11-07T11:48:54.759Z,30.48
2017-11-07T11:51:22.400Z,25.77
2017-11-07T11:53:50.022Z,29.77
2017-11-07T11:56:18.370Z,41.13
2017-11-07T11:58:45.966Z,28.42
2017-11-07T12:01:14.325Z,40.40
2017-11-07T12:03:41.968Z,32.15
2017-11-07T12:06:09.566Z,33.22
2017-11-07T12:08:37.175Z,32.03
2017-11-07T12:11:04.823Z,35.05
2017-11-07T12:13:32.391Z,26.02
2017-11-07T12:16:01.494Z,33.45
2017-11-07T12:18:29.212Z,34.70
2017-11-07T12:20:57.741Z,36.85
2017-11-07T12:23:26.488Z,36.00
2017-11-07T12:25:59.533Z,27.02
2017-11-07T12:28:27.360Z,37.13
2017-11-07T12:30:54.964Z,27.05
2017-11-07T12:33:22.548Z,30.33
2017-11-07T12:35:50.186Z,28.38
2017-11-07T12:38:18.509Z,25.70
2017-11-07T12:40:46.111Z,26.00
2017-11-07T12:43:13.648Z,27.08
2017-11-07T12:45:41.260Z,25.70
2017-11-07T12:48:09.557Z,26.62
2017-11-07T12:50:49.659Z,28.50
2017-11-07T12:53:17.235Z,29.63
2017-11-07T12:55:44.808Z,31.37
2017-11-07T12:58:12.351Z,25.85
2017-11-07T13:00:39.956Z,29.70
2017-11-07T13:03:08.308Z,26.95
2017-11-07T13:05:35.866Z,25.48
2017-11-07T13:08:04.881Z,27.02
2017-11-07T13:10:32.574Z,22.10
2017-11-07T13:13:00.885Z,25.55
2017-11-07T13:15:28.810Z,31.73
2017-11-07T13:17:56.376Z,28.67
2017-11-07T13:20:23.948Z,22.98
2017-11-07T13:22:53.352Z,28.62
2017-11-07T13:25:21.556Z,24.23
2017-11-07T13:27:49.434Z,26.25
2017-11-07T13:30:17.037Z,29.85
2017-11-07T13:32:44.820Z,26.52
2017-11-07T13:35:12.406Z,27.45
2017-11-07T13:37:40.736Z,33.28
2017-11-07T13:40:08.323Z,25.48
2017-11-07T13:42:36.646Z,27.58
2017-11-07T13:45:04.329Z,28.00
2017-11-07T13:47:31.869Z,28.23
2017-11-07T13:50:00.191Z,29.92
2017-11-07T13:52:28.452Z,27.62
2017-11-07T13:54:55.986Z,28.83
2017-11-07T13:57:23.599Z,36.67
2017-11-07T13:59:51.189Z,28.75
2017-11-07T14:02:18.737Z,26.62
2017-11-07T14:04:46.345Z,31.42
2017-11-07T14:07:13.933Z,28.90
2017-11-07T14:09:41.527Z,26.65
2017-11-07T14:12:09.109Z,30.55
2017-11-07T14:14:37.168Z,33.17
2017-11-07T14:17:05.005Z,30.27
2017-11-07T14:19:33.228Z,28.45
2017-11-07T14:22:01.059Z,34.90
2017-11-07T14:24:28.916Z,37.22
2017-11-07T14:26:56.803Z,32.10
2017-11-07T14:29:24.695Z,30.77
2017-11-07T14:31:52.992Z,34.85
2017-11-07T14:34:20.757Z,27.60
2017-11-07T14:36:48.316Z,33.78
2017-11-07T14:39:15.985Z,38.60
2017-11-07T14:41:43.569Z,40.55
2017-11-07T14:44:11.281Z,39.45
2017-11-07T14:46:39.122Z,49.90
2017-11-07T14:49:06.909Z,49.67
2017-11-07T14:51:35.602Z,48.75
2017-11-07T14:54:03.548Z,49.22
2017-11-07T14:56:34.803Z,68.55
2017-11-07T14:59:02.470Z,66.55
2017-11-07T15:01:31.017Z,56.05
2017-11-07T15:03:58.608Z,71.10
2017-11-07T15:06:26.956Z,53.78
2017-11-07T15:08:55.420Z,60.47
2017-11-07T15:11:23.900Z,59.72
2017-11-07T15:13:52.595Z,58.87
2017-11-07T15:16:20.931Z,56.72
2017-11-07T15:18:49.564Z,59.53
2017-11-07T15:21:18.307Z,52.67
2017-11-07T15:23:46.131Z,58.08
2017-11-07T15:26:13.947Z,57.90
2017-11-07T15:28:41.729Z,67.68
2017-11-07T15:31:09.535Z,54.22
2017-11-07T15:33:37.261Z,75.95
2017-11-07T15:36:04.888Z,57.92
2017-11-07T15:38:33.248Z,71.47
2017-11-07T15:41:01.569Z,63.38
2017-11-07T15:43:30.061Z,64.62
2017-11-07T15:45:57.884Z,61.05
2017-11-07T15:48:25.517Z,67.90
2017-11-07T15:50:53.127Z,65.55
2017-11-07T15:53:20.756Z,57.78
2017-11-07T15:55:48.468Z,61.72
2017-11-07T15:58:16.066Z,51.67
2017-11-07T16:00:43.693Z,65.35
2017-11-07T16:03:12.132Z,63.70
2017-11-07T16:05:40.017Z,61.10
2017-11-07T16:08:07.627Z,57.40
2017-11-07T16:10:35.196Z,57.85
2017-11-07T16:13:03.269Z,68.00
2017-11-07T16:15:31.364Z,68.28
2017-11-07T16:17:59.925Z,59.20
2017-11-07T16:20:27.557Z,53.05
2017-11-07T16:22:55.168Z,60.80
2017-11-07T16:25:23.005Z,59.97
2017-11-07T16:27:50.875Z,62.13
2017-11-07T16:30:19.794Z,55.78
2017-11-07T16:32:47.423Z,49.97
2017-11-07T16:35:15.011Z,61.08
2017-11-07T16:37:42.639Z,48.08
2017-11-07T16:40:10.232Z,50.65
2017-11-07T16:42:38.005Z,49.22
2017-11-07T16:45:05.636Z,58.60
2017-11-07T16:47:33.610Z,42.50
2017-11-07T16:50:01.479Z,38.75
2017-11-07T16:52:30.281Z,38.72
2017-11-07T16:54:58.241Z,43.33
2017-11-07T16:57:28.839Z,44.13
2017-11-07T16:59:57.911Z,39.50
2017-11-07T17:02:26.857Z,51.50
2017-11-07T17:04:55.075Z,50.58
2017-11-07T17:07:23.164Z,38.00
2017-11-07T17:09:52.415Z,48.00
2017-11-07T17:12:21.809Z,41.45
2017-11-07T17:14:50.226Z,55.17
2017-11-07T17:17:18.027Z,49.00
2017-11-07T17:19:45.965Z,55.50
2017-11-07T17:22:13.586Z,49.05
2017-11-07T17:24:41.614Z,36.40
2017-11-07T17:27:09.255Z,51.75
2017-11-07T17:29:37.752Z,49.35
2017-11-07T17:32:05.337Z,38.35
2017-11-07T17:34:33.641Z,39.13
2017-11-07T17:37:01.200Z,73.87
2017-11-07T17:39:29.574Z,68.53
2017-11-07T17:41:57.177Z,53.90
2017-11-07T17:44:25.516Z,37.28
2017-11-07T17:46:53.104Z,49.85
2017-11-07T17:49:23.290Z,43.35
2017-11-07T17:51:51.227Z,44.90
2017-11-07T17:54:21.137Z,38.63
2017-11-07T17:56:49.483Z,36.28
2017-11-07T17:59:17.051Z,46.37
2017-11-07T18:01:44.638Z,36.78
2017-11-07T18:04:12.457Z,53.90
2017-11-07T18:06:40.562Z,54.97
2017-11-07T18:09:08.340Z,47.72
2017-11-07T18:11:35.978Z,40.63
2017-11-07T18:14:03.736Z,44.05
2017-11-07T18:16:31.322Z,41.90
2017-11-07T18:18:58.955Z,46.97
2017-11-07T18:21:26.751Z,47.20
2017-11-07T18:23:55.364Z,42.55
2017-11-07T18:26:23.001Z,45.85
2017-11-07T18:28:50.586Z,43.40
2017-11-07T18:31:19.749Z,43.03
2017-11-07T18:33:47.327Z,42.78
2017-11-07T18:36:14.938Z,37.60
2017-11-07T18:38:42.603Z,38.33
2017-11-07T18:41:10.175Z,35.28
2017-11-07T18:43:37.775Z,38.40
2017-11-07T18:46:05.338Z,35.17
2017-11-07T18:48:33.658Z,34.92
2017-11-07T18:51:01.218Z,38.58
2017-11-07T18:53:28.809Z,40.15
2017-11-07T18:55:56.366Z,37.78
2017-11-07T18:58:24.717Z,32.35
2017-11-07T19:00:52.333Z,41.50
2017-11-07T19:03:19.883Z,33.97
2017-11-07T19:05:49.117Z,30.15
2017-11-07T19:08:17.905Z,33.00
2017-11-07T19:10:46.221Z,29.52
2017-11-07T19:13:13.794Z,38.65
2017-11-07T19:15:41.346Z,40.53
2017-11-07T19:18:08.946Z,39.95
2017-11-07T19:20:36.508Z,40.70
2017-11-07T19:23:04.072Z,35.28
2017-11-07T19:25:31.704Z,37.35
2017-11-07T19:27:59.334Z,36.08
2017-11-07T19:30:26.894Z,46.30
2017-11-07T19:32:54.458Z,42.10
2017-11-07T19:35:22.014Z,37.97
2017-11-07T19:37:49.636Z,47.38
2017-11-07T19:40:17.237Z,41.28
2017-11-07T19:42:44.820Z,42.60
2017-11-07T19:45:12.370Z,45.85
2017-11-07T19:47:39.925Z,42.97
2017-11-07T19:50:07.489Z,47.95
2017-11-07T19:52:35.324Z,40.25
2017-11-07T19:55:02.872Z,45.05
2017-11-07T19:57:32.022Z,38.20
2017-11-07T19:59:59.625Z,48.38
2017-11-07T20:02:27.205Z,46.45
2017-11-07T20:04:55.555Z,43.30
2017-11-07T20:07:23.116Z,49.13
2017-11-07T20:09:51.700Z,42.05
2017-11-07T20:12:19.240Z,40.22
2017-11-07T20:14:46.944Z,44.55
2017-11-07T20:17:14.532Z,46.47
2017-11-07T20:19:42.088Z,44.15
2017-11-07T20:22:10.608Z,53.50
2017-11-07T20:24:38.159Z,55.03
2017-11-07T20:27:05.721Z,39.63
2017-11-07T20:29:34.047Z,47.55
2017-11-07T20:32:01.604Z,45.97
2017-11-07T20:34:29.168Z,45.97
2017-11-07T20:36:56.746Z,49.47
2017-11-07T20:39:24.310Z,48.10
2017-11-07T20:41:51.876Z,44.88
2017-11-07T20:44:19.451Z,47.45
2017-11-07T20:46:47.166Z,52.60
2017-11-07T20:49:14.749Z,40.15
2017-11-07T20:51:42.327Z,46.95
2017-11-07T20:54:09.925Z,47.55
2017-11-07T20:56:37.473Z,52.45
2017-11-07T20:59:05.060Z,54.70
2017-11-07T21:01:35.923Z,43.65
2017-11-07T21:04:09.449Z,48.63
2017-11-07T21:06:37.823Z,48.20
2017-11-07T21:09:05.355Z,47.13
2017-11-07T21:11:32.941Z,52.25
2017-11-07T21:14:00.523Z,46.00
2017-11-07T21:16:28.211Z,50.30
2017-11-07T21:18:55.771Z,51.33
2017-11-07T21:21:26.162Z,44.33
2017-11-07T21:23:54.491Z,45.65
2017-11-07T21:26:23.081Z,53.05
2017-11-07T21:28:50.608Z,48.53
2017-11-07T21:31:19.835Z,50.58
2017-11-07T21:33:47.404Z,50.10
2017-11-07T21:36:14.999Z,48.03
2017-11-07T21:38:42.736Z,42.15
2017-11-07T21:41:10.284Z,47.88
2017-11-07T21:43:38.009Z,45.53
2017-11-07T21:46:05.594Z,47.95
2017-11-07T21:48:33.968Z,45.45
2017-11-07T21:51:01.592Z,43.45
2017-11-07T21:53:29.212Z,39.22
2017-11-07T21:55:56.826Z,38.72
2017-11-07T21:58:25.964Z,40.75
2017-11-07T22:00:54.281Z,36.97
2017-11-07T22:03:21.842Z,41.83
2017-11-07T22:05:49.450Z,35.78
2017-11-07T22:08:17.012Z,45.33
2017-11-07T22:10:46.357Z,39.88
2017-11-07T22:13:14.676Z,37.97
2017-11-07T22:15:42.236Z,40.67
2017-11-07T22:18:10.706Z,34.00
2017-11-07T22:20:40.049Z,32.75
2017-11-07T22:23:13.076Z,35.85
2017-11-07T22:25:44.206Z,35.97
2017-11-07T22:28:11.757Z,34.10
2017-11-07T22:30:39.325Z,41.60
2017-11-07T22:33:08.358Z,32.72
2017-11-07T22:35:36.706Z,31.95
2017-11-07T22:38:04.315Z,34.85
2017-11-07T22:40:32.657Z,35.08
2017-11-07T22:43:00.220Z,31.15
2017-11-07T22:45:28.333Z,38.03
2017-11-07T22:47:56.682Z,28.77
2017-11-07T22:50:24.283Z,30.65
2017-11-07T22:52:52.721Z,32.80
2017-11-07T22:55:20.297Z,33.95
2017-11-07T22:57:47.851Z,25.25
2017-11-07T23:00:15.423Z,28.52
2017-11-07T23:02:42.977Z,28.42
2017-11-07T23:05:10.516Z,28.27
2017-11-07T23:07:38.678Z,29.92
2017-11-07T23:10:06.552Z,27.13
2017-11-07T23:12:34.151Z,26.08
2017-11-07T23:15:01.688Z,29.58
2017-11-07T23:17:29.270Z,25.88
2017-11-07T23:19:56.839Z,27.17
2017-11-07T23:22:26.065Z,28.55
2017-11-07T23:24:53.613Z,27.58
2017-11-07T23:27:21.190Z,30.92
2017-11-07T23:29:48.742Z,27.02
2017-11-07T23:32:17.203Z,29.95
2017-11-07T23:34:44.815Z,29.40
2017-11-07T23:37:12.375Z,33.67
2017-11-07T23:39:42.002Z,29.42
2017-11-07T23:42:09.570Z,31.67
2017-11-07T23:44:37.899Z,27.00
2017-11-07T23:47:05.486Z,29.73
2017-11-07T23:49:33.059Z,29.45
2017-11-07T23:52:00.614Z,33.20
2017-11-07T23:54:28.198Z,30.00
2017-11-07T23:56:56.628Z,30.12
2017-11-07T23:59:24.957Z,28.00
